Aviation Digital Data Service (ADDS)

Output produced by METARs form (0016 UTC 26 June 2019)
found at http://aviationweather.gov/metar/data/
 
KLBX 252353Z AUTO 06007KT 10SM BKN110 24/22 A3002 RMK AO2 RAE53 SLP165 P0000 60061 T02440222 10250 20222 58011
KLBX 252320Z 2600/2624 09004KT P6SM VCSH BKN110 
     TEMPO 2600/2602 -RA 
     FM260200 09005KT P6SM SCT030 BKN150 
     FM260500 11005KT P6SM BKN020 
     FM261300 14008KT P6SM VCSH SCT030 
     FM261700 14009KT P6SM VCTS SCT040CB